Time;durP1;ratioP1;P1;durP2;ratioP2;P2;SDS_P1;SDS_P2;PMS_P1;PMS_P2;Temp;Humidity;BMP_temperature;BMP_pressure;BME280_temperature;BME280_humidity;BME280_pressure;Samples;Min_cycle;Max_cycle;Signal;HPM_P1;HPM_P2
2022/11/18 00:00:35;;;;;;;16.00;13.40;;;1.50;99.90;;;;;;4987122;28;21013;-54
2022/11/18 00:03:01;;;;;;;17.27;14.40;;;1.50;99.90;;;;;;4991337;28;20464;-53
2022/11/18 00:05:28;;;;;;;15.67;12.50;;;1.40;99.90;;;;;;4986454;28;20539;-55
2022/11/18 00:07:54;;;;;;;17.43;13.70;;;1.50;99.90;;;;;;4986781;28;20547;-55
2022/11/18 00:10:21;;;;;;;22.83;15.03;;;1.50;99.90;;;;;;4978110;28;20583;-55
2022/11/18 00:15:33;;;;;;;14.50;12.90;;;1.50;99.90;;;;;;4981560;28;20459;-55
2022/11/18 00:18:00;;;;;;;17.20;15.37;;;1.40;99.90;;;;;;4989018;28;20546;-55
2022/11/18 00:20:26;;;;;;;17.17;14.50;;;1.50;99.90;;;;;;4951064;28;998978;-55
2022/11/18 00:22:53;;;;;;;16.30;14.57;;;1.50;99.90;;;;;;4981893;28;20722;-55
2022/11/18 00:25:19;;;;;;;20.73;15.07;;;1.50;99.90;;;;;;5013131;23;20908;-51
2022/11/18 00:27:46;;;;;;;16.57;13.60;;;1.40;89.60;;;;;;5002303;28;20485;-52
2022/11/18 00:30:14;;;;;;;16.83;15.03;;;1.50;99.90;;;;;;5000761;28;20512;-51
2022/11/18 00:32:40;;;;;;;15.60;13.30;;;1.50;99.90;;;;;;4999747;28;20464;-51
2022/11/18 00:35:08;;;;;;;17.53;14.60;;;1.50;99.90;;;;;;4992172;28;20512;-51
2022/11/18 00:37:34;;;;;;;20.53;15.57;;;1.40;24.90;;;;;;4987235;28;22038;-51
2022/11/18 00:40:01;;;;;;;16.30;13.87;;;1.40;28.70;;;;;;4978736;28;20566;-51
2022/11/18 00:45:11;;;;;;;16.93;15.23;;;1.40;26.50;;;;;;4972132;28;20472;-52
2022/11/18 00:47:39;;;;;;;17.53;14.60;;;1.40;28.00;;;;;;4981407;28;20515;-52
2022/11/18 00:50:06;;;;;;;19.37;15.13;;;1.30;27.90;;;;;;4979806;28;20556;-51
2022/11/18 00:52:33;;;;;;;17.93;14.60;;;1.30;31.70;;;;;;4984493;28;20503;-52
2022/11/18 00:54:59;;;;;;;17.70;15.33;;;1.30;29.40;;;;;;4983312;28;20539;-51
2022/11/18 00:57:26;;;;;;;16.27;14.47;;;1.40;32.40;;;;;;4985877;28;21134;-51
2022/11/18 00:59:53;;;;;;;15.87;14.30;;;1.40;28.80;;;;;;4984833;28;20531;-51
2022/11/18 01:02:19;;;;;;;16.50;14.80;;;1.40;26.90;;;;;;4981167;28;20466;-51
2022/11/18 01:04:47;;;;;;;16.47;13.70;;;1.40;31.40;;;;;;4980573;28;20546;-51
2022/11/18 01:07:14;;;;;;;16.30;14.60;;;1.40;29.10;;;;;;4983344;28;20504;-51
2022/11/18 01:09:40;;;;;;;17.63;14.97;;;1.40;28.40;;;;;;4983483;28;21003;-51
2022/11/18 01:14:53;;;;;;;15.67;13.97;;;1.30;25.80;;;;;;4981762;28;20472;-50
2022/11/18 01:17:19;;;;;;;17.00;15.20;;;1.30;26.40;;;;;;4986566;28;20504;-51
2022/11/18 01:19:47;;;;;;;16.83;14.53;;;1.30;26.80;;;;;;4983515;28;20550;-52
2022/11/18 01:22:14;;;;;;;15.00;13.40;;;1.20;35.00;;;;;;4982695;28;20457;-51
2022/11/18 01:24:41;;;;;;;15.93;14.07;;;1.20;31.50;;;;;;4984990;28;20523;-57
2022/11/18 01:27:07;;;;;;;15.90;14.37;;;1.20;30.10;;;;;;4987235;28;20962;-52
2022/11/18 01:29:34;;;;;;;18.97;14.57;;;1.20;30.20;;;;;;4989310;28;20511;-52
2022/11/18 01:32:00;;;;;;;15.80;14.07;;;1.20;26.90;;;;;;4985930;28;20509;-51
2022/11/18 01:34:28;;;;;;;15.80;14.23;;;1.20;29.80;;;;;;4981417;28;20512;-51
2022/11/18 01:36:57;;;;;;;16.40;14.57;;;1.20;37.60;;;;;;4984789;28;20469;-52
2022/11/18 01:39:23;;;;;;;16.10;13.77;;;1.10;34.40;;;;;;4982753;28;20457;-52
2022/11/18 01:41:50;;;;;;;15.30;13.67;;;1.20;34.90;;;;;;4981936;28;20484;-51
2022/11/18 01:44:54;;;;;;;18.17;16.37;;;1.10;35.60;;;;;;4984345;28;20530;-51
2022/11/18 01:47:21;;;;;;;17.90;15.07;;;1.20;33.30;;;;;;4988190;28;20997;-51
2022/11/18 01:49:48;;;;;;;18.20;15.27;;;1.10;40.20;;;;;;4988592;28;20851;-51
2022/11/18 01:52:16;;;;;;;16.50;13.83;;;1.10;47.50;;;;;;4979249;28;20497;-51
2022/11/18 01:54:47;;;;;;;16.80;14.60;;;1.10;44.90;;;;;;4985427;28;20512;-51
2022/11/18 01:57:19;;;;;;;15.77;14.17;;;1.10;40.10;;;;;;4984623;28;20456;-51
2022/11/18 01:59:53;;;;;;;17.07;14.40;;;1.10;43.40;;;;;;4984347;28;20980;-51
2022/11/18 02:02:21;;;;;;;15.97;14.30;;;1.10;44.00;;;;;;4981112;28;21023;-52
2022/11/18 02:04:51;;;;;;;16.53;14.80;;;1.00;45.70;;;;;;4990025;28;20503;-51
2022/11/18 02:07:20;;;;;;;16.00;14.43;;;1.00;47.10;;;;;;4988444;28;20523;-51
2022/11/18 02:09:48;;;;;;;15.83;14.23;;;1.10;39.50;;;;;;4983633;28;20575;-51
2022/11/18 02:12:14;;;;;;;16.20;14.50;;;1.10;38.60;;;;;;4979799;28;20497;-52
2022/11/18 02:14:45;;;;;;;20.37;14.93;;;1.00;46.60;;;;;;4984984;28;20516;-51
2022/11/18 02:17:24;;;;;;;16.67;14.53;;;1.00;47.70;;;;;;4983340;28;20515;-51
2022/11/18 02:20:11;;;;;;;16.20;14.50;;;1.10;43.50;;;;;;4978432;28;20519;-51
2022/11/18 02:22:57;;;;;;;16.10;14.27;;;1.00;49.10;;;;;;4980578;28;20515;-53
2022/11/18 02:25:35;;;;;;;16.80;14.30;;;1.00;59.90;;;;;;4988640;28;20520;-51
2022/11/18 02:28:24;;;;;;;16.37;14.60;;;1.00;48.60;;;;;;4989778;28;20550;-51
2022/11/18 02:30:57;;;;;;;17.20;14.10;;;1.00;50.80;;;;;;4989083;28;21021;-52
2022/11/18 02:33:28;;;;;;;14.83;13.23;;;1.00;52.50;;;;;;4991029;28;20496;-52
2022/11/18 02:36:00;;;;;;;17.00;15.17;;;1.00;53.00;;;;;;4983678;28;20512;-51
2022/11/18 02:38:30;;;;;;;16.60;15.00;;;1.00;50.30;;;;;;4989669;28;20465;-52
2022/11/18 02:41:01;;;;;;;15.73;14.13;;;1.00;58.20;;;;;;4991339;28;20871;-52
2022/11/18 02:43:31;;;;;;;15.73;14.13;;;1.00;46.60;;;;;;4988944;28;20519;-51
2022/11/18 02:46:02;;;;;;;16.13;14.60;;;1.00;52.60;;;;;;4991410;28;20559;-51
2022/11/18 02:48:32;;;;;;;16.47;14.67;;;1.00;54.30;;;;;;4985112;28;20495;-52
2022/11/18 02:51:01;;;;;;;16.70;15.00;;;0.90;65.80;;;;;;4987244;28;20477;-51
2022/11/18 02:53:30;;;;;;;17.33;15.60;;;1.00;59.70;;;;;;4980322;28;20461;-51
2022/11/18 02:55:58;;;;;;;17.07;15.27;;;1.00;59.40;;;;;;4986636;28;20826;-51
2022/11/18 02:58:26;;;;;;;16.30;14.80;;;1.10;58.40;;;;;;4984407;28;20461;-51
2022/11/18 03:00:54;;;;;;;16.50;14.90;;;1.00;55.50;;;;;;4986343;28;20522;-51
2022/11/18 03:03:28;;;;;;;19.27;17.47;;;1.00;64.00;;;;;;4988856;28;20464;-51
2022/11/18 03:06:04;;;;;;;18.50;16.50;;;1.00;62.80;;;;;;4983906;28;20484;-52
2022/11/18 03:08:37;;;;;;;18.03;16.23;;;1.00;63.70;;;;;;4986164;28;20460;-52
2022/11/18 03:11:11;;;;;;;20.30;18.20;;;1.00;67.10;;;;;;4984860;28;20542;-52
2022/11/18 03:13:47;;;;;;;21.20;18.90;;;1.00;60.60;;;;;;4992234;28;20511;-51
2022/11/18 03:16:19;;;;;;;23.10;20.63;;;1.00;62.50;;;;;;4986575;28;20460;-51
2022/11/18 03:18:55;;;;;;;20.27;18.17;;;1.00;59.80;;;;;;4984443;28;20464;-52
2022/11/18 03:21:31;;;;;;;21.70;19.40;;;1.00;56.20;;;;;;4988794;28;20460;-52
2022/11/18 03:24:05;;;;;;;21.63;19.33;;;0.90;55.70;;;;;;4980122;28;20544;-51
2022/11/18 03:26:36;;;;;;;22.10;19.80;;;0.90;43.30;;;;;;4986725;28;20451;-52
2022/11/18 03:29:08;;;;;;;24.63;22.03;;;0.90;48.90;;;;;;4988628;28;20513;-51
2022/11/18 03:31:39;;;;;;;22.63;20.33;;;0.80;50.20;;;;;;4984373;28;20489;-51
2022/11/18 03:34:14;;;;;;;22.93;20.50;;;0.80;45.20;;;;;;4985614;28;20542;-51
2022/11/18 03:36:45;;;;;;;29.50;22.17;;;0.80;49.50;;;;;;4986987;28;21028;-51
2022/11/18 03:39:14;;;;;;;25.03;21.00;;;0.80;45.50;;;;;;4984592;28;20468;-52
2022/11/18 03:41:46;;;;;;;23.57;20.20;;;0.80;44.30;;;;;;4985379;28;20869;-51
2022/11/18 03:44:16;;;;;;;25.10;21.57;;;0.70;40.70;;;;;;4980559;28;20511;-52
2022/11/18 03:46:47;;;;;;;22.47;20.17;;;0.70;39.40;;;;;;4983437;28;20488;-52
2022/11/18 03:49:19;;;;;;;24.17;21.60;;;0.70;36.10;;;;;;4986299;28;20472;-52
2022/11/18 03:51:50;;;;;;;24.70;22.10;;;0.60;36.70;;;;;;4980828;28;20684;-51
2022/11/18 03:54:21;;;;;;;24.30;21.80;;;0.60;29.20;;;;;;4984172;28;20492;-51
2022/11/18 03:56:53;;;;;;;23.63;21.10;;;0.50;27.30;;;;;;4988133;28;21017;-51
2022/11/18 03:59:24;;;;;;;27.70;22.90;;;0.60;20.30;;;;;;4985325;28;20511;-51
2022/11/18 04:01:54;;;;;;;24.47;21.37;;;0.60;89.80;;;;;;4988694;28;20511;-51
2022/11/18 04:04:24;;;;;;;24.27;21.67;;;0.50;82.20;;;;;;4989316;28;20994;-51
2022/11/18 04:06:54;;;;;;;23.80;21.03;;;0.50;99.90;;;;;;4985007;28;20950;-51
2022/11/18 04:09:25;;;;;;;25.83;22.47;;;0.50;99.90;;;;;;4984931;28;20523;-51
2022/11/18 04:12:04;;;;;;;24.40;20.60;;;0.50;99.90;;;;;;4983571;28;20484;-52
2022/11/18 04:14:33;;;;;;;26.97;22.57;;;0.50;99.90;;;;;;4988139;28;20882;-51
2022/11/18 04:17:00;;;;;;;22.20;19.90;;;0.50;99.90;;;;;;4985621;28;20464;-51
2022/11/18 04:19:28;;;;;;;23.67;20.00;;;0.40;99.90;;;;;;4983071;28;20860;-52
2022/11/18 04:21:55;;;;;;;22.33;19.73;;;0.40;99.90;;;;;;4982292;28;20461;-52
2022/11/18 04:24:21;;;;;;;22.70;20.37;;;0.30;99.90;;;;;;4981181;28;20989;-51
2022/11/18 04:26:48;;;;;;;20.57;18.47;;;0.30;99.90;;;;;;4977098;28;20546;-51
2022/11/18 04:29:14;;;;;;;21.20;18.07;;;0.30;99.90;;;;;;4985924;28;21129;-52
2022/11/18 04:31:41;;;;;;;21.97;18.23;;;0.30;99.90;;;;;;4984839;28;20654;-52
2022/11/18 04:34:08;;;;;;;19.73;17.63;;;0.30;99.90;;;;;;4985410;28;20547;-51
2022/11/18 04:36:36;;;;;;;21.03;18.93;;;0.30;99.90;;;;;;4988233;28;20567;-52
2022/11/18 04:39:03;;;;;;;22.87;20.07;;;0.20;99.90;;;;;;4988757;28;20855;-52
2022/11/18 04:44:12;;;;;;;22.47;18.00;;;0.30;99.90;;;;;;4986066;28;20473;-52
2022/11/18 04:46:40;;;;;;;21.23;17.50;;;0.20;99.90;;;;;;4983692;28;20966;-51
2022/11/18 04:49:07;;;;;;;19.20;17.20;;;0.20;99.90;;;;;;4978997;28;20533;-51
2022/11/18 04:51:36;;;;;;;18.10;16.20;;;0.20;99.90;;;;;;4985528;28;20516;-51
2022/11/18 04:54:03;;;;;;;45.97;27.27;;;0.20;99.90;;;;;;4987508;28;20492;-53
2022/11/18 04:56:29;;;;;;;21.37;18.33;;;0.10;29.40;;;;;;4981454;28;20503;-52
2022/11/18 04:58:57;;;;;;;19.83;16.30;;;0.10;35.90;;;;;;4982197;28;20524;-51
2022/11/18 05:01:24;;;;;;;22.70;16.80;;;0.10;26.60;;;;;;4985651;28;21021;-52
2022/11/18 05:03:51;;;;;;;17.93;16.13;;;0.10;28.00;;;;;;4987253;28;20464;-51
2022/11/18 05:06:17;;;;;;;16.00;14.37;;;0.10;47.30;;;;;;4988261;28;20483;-52
2022/11/18 05:08:45;;;;;;;18.23;15.07;;;0.10;37.00;;;;;;4983868;28;20453;-52
2022/11/18 05:13:56;;;;;;;17.50;15.57;;;0.20;35.10;;;;;;4982055;28;20541;-52
2022/11/18 05:16:23;;;;;;;18.23;16.30;;;0.20;41.00;;;;;;4981603;28;20483;-51
2022/11/18 05:18:49;;;;;;;15.57;13.87;;;0.20;48.10;;;;;;4983283;28;20524;-52
2022/11/18 05:21:16;;;;;;;20.97;15.40;;;0.10;52.40;;;;;;4983563;28;20472;-51
2022/11/18 05:23:44;;;;;;;16.50;14.60;;;0.20;57.10;;;;;;4988402;28;20464;-52
2022/11/18 05:26:11;;;;;;;16.83;15.00;;;0.20;58.80;;;;;;4987363;28;20963;-52
2022/11/18 05:28:38;;;;;;;17.63;13.53;;;0.10;66.40;;;;;;4981526;28;20466;-52
2022/11/18 05:31:07;;;;;;;15.80;14.10;;;0.20;62.50;;;;;;4978573;28;20547;-52
2022/11/18 05:33:33;;;;;;;16.57;14.50;;;0.20;55.90;;;;;;4985582;28;20464;-51
2022/11/18 05:36:03;;;;;;;24.40;15.33;;;0.20;60.40;;;;;;4983966;28;20570;-52
2022/11/18 05:38:31;;;;;;;14.60;13.10;;;0.30;56.50;;;;;;4980141;28;20540;-52
2022/11/18 05:40:59;;;;;;;14.53;12.97;;;0.20;63.00;;;;;;4981330;28;20460;-52
2022/11/18 05:43:24;;;;;;;18.40;12.83;;;0.20;64.10;;;;;;4984843;28;20884;-52
2022/11/18 05:45:52;;;;;;;13.40;12.00;;;0.10;61.10;;;;;;4979822;28;20472;-52
2022/11/18 05:48:19;;;;;;;18.50;12.53;;;0.10;60.90;;;;;;4988432;28;20213;-52
2022/11/18 05:50:47;;;;;;;15.10;12.90;;;0.10;61.80;;;;;;4985628;28;20488;-52
2022/11/18 05:53:15;;;;;;;14.10;12.50;;;0.20;57.20;;;;;;4981149;28;20461;-51
2022/11/18 05:55:48;;;;;;;14.33;11.90;;;0.20;69.90;;;;;;4982641;28;20520;-52
2022/11/18 05:58:16;;;;;;;18.00;15.63;;;0.20;60.30;;;;;;4986191;28;21534;-51
2022/11/18 06:00:43;;;;;;;14.47;11.43;;;0.20;61.00;;;;;;4981589;28;20456;-52
2022/11/18 06:03:16;;;;;;;14.57;13.07;;;0.10;67.10;;;;;;4984313;28;20458;-52
2022/11/18 06:05:43;;;;;;;15.10;12.40;;;0.10;63.20;;;;;;4987042;28;20479;-51
2022/11/18 06:08:12;;;;;;;12.70;11.03;;;0.10;67.10;;;;;;4990427;28;20460;-51
2022/11/18 06:10:42;;;;;;;15.63;14.03;;;0.10;65.00;;;;;;4988523;28;20488;-52
2022/11/18 06:13:11;;;;;;;10.70;9.63;;;0.20;66.50;;;;;;4989381;28;20470;-52
2022/11/18 06:15:42;;;;;;;11.60;10.30;;;0.10;75.20;;;;;;4987545;28;20530;-51
2022/11/18 06:18:11;;;;;;;12.57;11.00;;;0.10;65.50;;;;;;4984107;28;20464;-52
2022/11/18 06:20:41;;;;;;;13.33;10.10;;;0.10;66.00;;;;;;4989814;28;20469;-52
2022/11/18 06:23:08;;;;;;;13.70;11.60;;;0.20;79.00;;;;;;4984632;28;20843;-52
2022/11/18 06:25:38;;;;;;;12.33;11.00;;;0.10;91.70;;;;;;4985948;28;20492;-51
2022/11/18 06:28:05;;;;;;;12.03;10.87;;;0.10;78.00;;;;;;4988466;28;20860;-51
2022/11/18 06:30:31;;;;;;;13.87;11.63;;;0.20;83.80;;;;;;4986529;28;20464;-51
2022/11/18 06:32:59;;;;;;;14.50;12.63;;;0.20;92.30;;;;;;4988074;28;20460;-52
2022/11/18 06:35:26;;;;;;;13.00;11.80;;;0.20;92.90;;;;;;4976658;28;20477;-52
2022/11/18 06:37:52;;;;;;;12.23;11.03;;;0.20;90.30;;;;;;4986439;28;20460;-52
2022/11/18 06:40:20;;;;;;;13.43;12.10;;;0.20;99.90;;;;;;4989051;28;20831;-53
2022/11/18 06:45:31;;;;;;;13.93;12.47;;;0.10;99.90;;;;;;4988750;28;20468;-52
2022/11/18 06:47:59;;;;;;;20.93;12.17;;;0.20;82.10;;;;;;4993757;28;20444;-52
2022/11/18 06:50:26;;;;;;;14.97;13.40;;;0.20;93.50;;;;;;4982147;28;20895;-51
2022/11/18 06:52:53;;;;;;;16.50;13.37;;;0.10;99.90;;;;;;4979023;28;20878;-52
2022/11/18 06:55:20;;;;;;;14.30;12.50;;;0.10;99.90;;;;;;4965951;28;20593;-52
2022/11/18 06:57:46;;;;;;;18.87;14.67;;;0.10;99.90;;;;;;4983542;28;20590;-51
2022/11/18 07:00:14;;;;;;;17.63;15.13;;;0.10;99.50;;;;;;4988737;28;20472;-52
2022/11/18 07:02:41;;;;;;;17.70;14.50;;;-0.10;99.90;;;;;;4984991;28;20461;-51
2022/11/18 07:05:09;;;;;;;18.87;13.97;;;0.00;99.90;;;;;;4985611;28;20480;-52
2022/11/18 07:07:36;;;;;;;22.23;15.10;;;0.00;99.90;;;;;;4997983;23;20514;-52
2022/11/18 07:10:03;;;;;;;17.83;14.70;;;0.00;99.90;;;;;;4987491;28;20456;-52
2022/11/18 07:12:29;;;;;;;21.70;15.97;;;0.00;99.90;;;;;;4987518;28;20531;-51
2022/11/18 07:14:56;;;;;;;19.80;15.30;;;0.10;99.90;;;;;;4988950;28;20464;-51
2022/11/18 07:17:23;;;;;;;31.20;22.07;;;0.00;99.90;;;;;;4973407;28;20540;-51
2022/11/18 07:19:49;;;;;;;19.30;17.03;;;0.10;99.90;;;;;;4970704;28;20458;-51
2022/11/18 07:22:17;;;;;;;24.97;19.90;;;0.20;99.90;;;;;;4963963;28;20465;-52
2022/11/18 07:24:44;;;;;;;18.80;15.10;;;0.20;99.90;;;;;;4968607;28;20935;-51
2022/11/18 07:27:10;;;;;;;28.20;20.70;;;0.10;99.90;;;;;;4965606;28;20508;-51
2022/11/18 07:29:37;;;;;;;26.90;17.40;;;0.20;99.90;;;;;;4968903;28;20461;-51
2022/11/18 07:32:03;;;;;;;18.03;16.13;;;0.10;99.90;;;;;;4966157;28;22695;-51
2022/11/18 07:34:30;;;;;;;18.73;16.03;;;0.20;99.90;;;;;;4971151;28;21018;-51
2022/11/18 07:36:57;;;;;;;18.47;16.47;;;0.10;99.90;;;;;;4964940;28;20477;-51
2022/11/18 07:39:25;;;;;;;27.70;21.70;;;0.20;99.90;;;;;;4964871;28;20470;-51
2022/11/18 07:41:51;;;;;;;22.17;17.17;;;0.10;99.90;;;;;;4971556;28;20466;-51
2022/11/18 07:44:18;;;;;;;22.77;16.47;;;0.10;99.90;;;;;;4967236;28;21127;-51
2022/11/18 07:46:44;;;;;;;18.30;15.70;;;0.00;99.90;;;;;;4966859;28;20535;-52
2022/11/18 07:49:11;;;;;;;21.37;17.40;;;0.00;99.90;;;;;;4969154;28;20492;-52
2022/11/18 07:51:39;;;;;;;18.07;15.47;;;0.00;99.90;;;;;;4963461;28;20496;-52
2022/11/18 07:54:07;;;;;;;24.00;17.10;;;-0.20;99.90;;;;;;4970532;28;20470;-52
2022/11/18 07:56:35;;;;;;;28.30;17.17;;;0.00;99.90;;;;;;4970011;28;20485;-52
2022/11/18 07:59:03;;;;;;;19.80;17.10;;;-0.10;99.90;;;;;;4959896;28;20993;-52
2022/11/18 08:01:30;;;;;;;19.07;16.17;;;0.00;99.90;;;;;;4969348;28;20469;-51
2022/11/18 08:03:57;;;;;;;20.77;16.00;;;0.10;99.90;;;;;;4970850;28;20465;-52
2022/11/18 08:06:24;;;;;;;20.77;16.60;;;0.10;99.90;;;;;;4967050;28;20516;-51
2022/11/18 08:08:51;;;;;;;17.80;15.70;;;0.10;99.90;;;;;;4965951;28;20477;-52
2022/11/18 08:11:19;;;;;;;17.63;15.73;;;0.10;99.90;;;;;;4968354;28;20890;-52
2022/11/18 08:13:47;;;;;;;17.80;16.00;;;0.10;99.90;;;;;;4968427;28;20465;-51
2022/11/18 08:16:16;;;;;;;21.70;16.97;;;0.20;99.90;;;;;;4967033;28;20488;-51
2022/11/18 08:18:43;;;;;;;19.33;17.23;;;0.30;99.90;;;;;;4970825;28;20512;-52
2022/11/18 08:21:10;;;;;;;16.43;14.73;;;0.30;99.90;;;;;;4966925;28;20454;-51
2022/11/18 08:23:37;;;;;;;19.57;15.93;;;0.50;99.90;;;;;;4965466;28;20473;-52
2022/11/18 08:26:05;;;;;;;21.07;16.13;;;0.50;99.90;;;;;;4971121;28;20540;-51
2022/11/18 08:28:32;;;;;;;18.60;14.37;;;0.50;99.90;;;;;;4968448;28;21033;-52
2022/11/18 08:31:08;;;;;;;16.53;14.17;;;0.50;99.90;;;;;;4969500;28;20473;-52
2022/11/18 08:33:34;;;;;;;19.30;14.47;;;0.60;99.90;;;;;;4955186;28;20466;-52
2022/11/18 08:36:06;;;;;;;17.03;13.47;;;0.30;99.90;;;;;;4963035;28;21026;-52
2022/11/18 08:38:32;;;;;;;15.73;13.40;;;0.10;99.90;;;;;;4966765;28;21010;-52
2022/11/18 08:40:59;;;;;;;17.53;14.70;;;0.00;99.90;;;;;;4964723;28;20458;-52
2022/11/18 08:43:26;;;;;;;16.63;13.47;;;-0.10;99.90;;;;;;4965116;28;20465;-52
2022/11/18 08:45:52;;;;;;;16.40;13.70;;;-0.10;99.90;;;;;;4966440;28;20536;-52
2022/11/18 08:48:20;;;;;;;18.13;14.47;;;-0.20;99.90;;;;;;4969620;28;20537;-52
2022/11/18 08:50:47;;;;;;;16.17;13.93;;;0.00;99.90;;;;;;4966671;28;20517;-52
2022/11/18 08:53:15;;;;;;;16.87;12.80;;;0.00;99.90;;;;;;4965837;28;20489;-52
2022/11/18 08:55:41;;;;;;;16.80;12.80;;;0.00;99.90;;;;;;4965210;28;20461;-52
2022/11/18 08:58:08;;;;;;;18.60;11.43;;;0.10;99.90;;;;;;4961598;28;20476;-51
2022/11/18 09:00:35;;;;;;;20.87;13.70;;;0.20;99.90;;;;;;4967727;28;20473;-51
2022/11/18 09:03:01;;;;;;;15.77;12.40;;;0.30;99.90;;;;;;4969987;28;20469;-52
2022/11/18 09:05:29;;;;;;;17.83;13.60;;;0.30;99.90;;;;;;4966052;28;20465;-52
2022/11/18 09:07:56;;;;;;;13.57;11.63;;;0.20;99.90;;;;;;4971101;28;20453;-52
2022/11/18 09:10:22;;;;;;;17.63;13.00;;;0.30;99.90;;;;;;4968358;28;20544;-53
2022/11/18 09:12:49;;;;;;;14.97;12.70;;;0.30;99.90;;;;;;4966516;28;20481;-52
2022/11/18 09:15:16;;;;;;;15.70;12.73;;;0.30;99.90;;;;;;4963222;28;22485;-52
2022/11/18 09:17:42;;;;;;;16.70;11.90;;;0.30;99.90;;;;;;4966656;28;20560;-53
2022/11/18 09:20:10;;;;;;;13.60;11.10;;;0.40;1.40;;;;;;4967589;28;20500;-52
2022/11/18 09:22:39;;;;;;;12.97;11.50;;;0.30;99.90;;;;;;4960926;28;20462;-51
2022/11/18 09:25:06;;;;;;;12.60;10.57;;;0.40;99.90;;;;;;4962790;28;20829;-51
2022/11/18 09:27:33;;;;;;;13.83;11.13;;;0.20;99.90;;;;;;4962482;28;20568;-51
2022/11/18 09:29:59;;;;;;;12.60;10.60;;;0.30;99.90;;;;;;4961512;28;20485;-51
2022/11/18 09:32:26;;;;;;;13.43;11.87;;;0.40;99.90;;;;;;4966915;28;20532;-50
2022/11/18 09:34:52;;;;;;;12.73;11.33;;;0.40;99.90;;;;;;4970968;28;20513;-52
2022/11/18 09:37:19;;;;;;;13.40;12.00;;;0.50;99.90;;;;;;4968464;28;20476;-51
2022/11/18 09:39:47;;;;;;;13.67;12.00;;;0.40;99.90;;;;;;4971057;28;20461;-52
2022/11/18 09:42:37;;;;;;;12.37;10.10;;;0.40;99.90;;;;;;4963450;28;20470;-51
2022/11/18 09:45:12;;;;;;;14.57;10.50;;;0.40;99.90;;;;;;4970342;28;20466;-51
2022/11/18 09:47:39;;;;;;;11.10;9.57;;;0.40;99.90;;;;;;4969780;28;20543;-51
2022/11/18 09:50:11;;;;;;;12.57;10.10;;;0.40;99.90;;;;;;4970886;28;20520;-50
2022/11/18 09:52:44;;;;;;;11.73;10.53;;;0.40;99.90;;;;;;4966426;28;20476;-51
2022/11/18 09:55:14;;;;;;;19.80;11.27;;;0.50;99.90;;;;;;4970196;28;20461;-51
2022/11/18 09:57:45;;;;;;;30.90;25.37;;;0.50;99.90;;;;;;4972303;28;20535;-51
2022/11/18 10:00:15;;;;;;;12.83;10.37;;;0.50;99.90;;;;;;4966220;28;20485;-50
2022/11/18 10:02:49;;;;;;;13.67;10.47;;;0.50;99.90;;;;;;4971381;28;20453;-51
2022/11/18 10:05:19;;;;;;;11.53;10.40;;;0.50;99.90;;;;;;4969068;28;20520;-51
2022/11/18 10:07:55;;;;;;;14.67;12.40;;;0.50;99.90;;;;;;4967295;28;20488;-51
2022/11/18 10:10:34;;;;;;;14.10;10.20;;;0.50;99.90;;;;;;4969203;28;20466;-50
2022/11/18 10:13:09;;;;;;;21.97;14.23;;;0.40;99.90;;;;;;4970716;28;20547;-51
2022/11/18 10:15:41;;;;;;;15.07;10.87;;;0.40;99.90;;;;;;4974641;28;20990;-51
2022/11/18 10:18:20;;;;;;;17.40;13.07;;;0.50;99.90;;;;;;4967034;28;20470;-51
2022/11/18 10:20:56;;;;;;;15.00;11.90;;;0.50;99.90;;;;;;4968069;28;21037;-51
2022/11/18 10:23:28;;;;;;;10.43;9.10;;;0.50;99.90;;;;;;4968887;28;20493;-51
2022/11/18 10:25:57;;;;;;;12.73;9.93;;;0.60;99.90;;;;;;4972151;28;20477;-51
2022/11/18 10:28:28;;;;;;;9.50;8.50;;;0.40;99.90;;;;;;4964888;28;20465;-52
2022/11/18 10:31:03;;;;;;;9.27;8.47;;;0.60;99.90;;;;;;4968559;28;20540;-52
2022/11/18 10:33:31;;;;;;;11.57;8.07;;;0.70;99.90;;;;;;4972030;28;20481;-51
2022/11/18 10:36:25;;;;;;;9.93;8.93;;;0.80;99.90;;;;;;4975257;28;20473;-51
2022/11/18 10:39:06;;;;;;;11.00;8.20;;;0.80;99.90;;;;;;4961504;28;20458;-51
2022/11/18 10:41:43;;;;;;;8.90;8.10;;;0.80;99.90;;;;;;4968950;28;20493;-51
2022/11/18 10:44:29;;;;;;;8.73;7.93;;;0.80;99.90;;;;;;4971906;28;20465;-51
2022/11/18 10:46:56;;;;;;;10.10;7.40;;;0.80;99.90;;;;;;4973550;28;20499;-52
2022/11/18 10:49:22;;;;;;;7.93;7.13;;;0.80;99.90;;;;;;4969676;28;20468;-51
2022/11/18 10:52:06;;;;;;;11.23;8.20;;;0.90;99.90;;;;;;4970267;28;20958;-51
2022/11/18 10:54:39;;;;;;;6.60;5.97;;;0.80;99.90;;;;;;4972881;28;20454;-51
2022/11/18 10:57:15;;;;;;;9.70;7.17;;;0.70;99.90;;;;;;4967014;28;20545;-51
2022/11/18 10:59:47;;;;;;;9.37;7.10;;;0.70;99.90;;;;;;4962075;28;20555;-51
2022/11/18 11:02:17;;;;;;;6.43;5.93;;;0.60;99.90;;;;;;4967906;28;20457;-51
2022/11/18 11:04:45;;;;;;;11.43;7.87;;;0.70;99.90;;;;;;4973877;28;20457;-51
2022/11/18 11:07:17;;;;;;;7.80;7.10;;;0.80;99.90;;;;;;4962341;28;20497;-51
2022/11/18 11:09:44;;;;;;;7.00;6.00;;;0.90;99.90;;;;;;4974996;28;20882;-51
2022/11/18 11:12:16;;;;;;;7.60;6.83;;;1.00;99.90;;;;;;4961782;28;20477;-52
2022/11/18 11:14:51;;;;;;;8.00;6.77;;;1.00;99.90;;;;;;4972208;28;20466;-51
2022/11/18 11:17:21;;;;;;;6.00;5.50;;;1.10;99.90;;;;;;4971500;28;21067;-51
2022/11/18 11:19:52;;;;;;;8.33;7.27;;;1.00;99.90;;;;;;4964314;28;21006;-51
2022/11/18 11:22:19;;;;;;;5.70;5.13;;;1.10;99.90;;;;;;4970390;28;20948;-51
2022/11/18 11:24:45;;;;;;;5.40;4.90;;;1.10;99.90;;;;;;4967711;28;20461;-51
2022/11/18 11:27:24;;;;;;;7.07;6.47;;;1.20;99.90;;;;;;4966815;28;20470;-51
2022/11/18 11:30:07;;;;;;;5.50;5.10;;;1.30;99.90;;;;;;4971556;28;20498;-53
2022/11/18 11:32:56;;;;;;;5.90;5.40;;;1.30;99.90;;;;;;4969449;28;20489;-51
2022/11/18 11:35:26;;;;;;;6.43;5.90;;;1.40;99.90;;;;;;4961414;28;20989;-52
2022/11/18 11:37:57;;;;;;;6.33;5.73;;;1.50;99.90;;;;;;4972650;28;20922;-51
2022/11/18 11:40:32;;;;;;;5.93;5.00;;;1.70;99.90;;;;;;4971734;28;20541;-52
2022/11/18 11:43:18;;;;;;;6.57;6.00;;;1.80;99.90;;;;;;4967326;28;20592;-52
2022/11/18 11:45:56;;;;;;;7.33;6.33;;;2.10;99.90;;;;;;4967115;28;20466;-53
2022/11/18 11:48:37;;;;;;;6.53;5.90;;;2.50;99.90;;;;;;4971128;28;20959;-52
2022/11/18 11:51:10;;;;;;;9.03;4.97;;;3.00;99.90;;;;;;4966125;28;20500;-51
2022/11/18 11:54:11;;;;;;;5.60;5.10;;;3.30;33.40;;;;;;4968401;28;20493;-51
2022/11/18 11:56:41;;;;;;;4.93;4.53;;;4.00;72.60;;;;;;4968320;28;20535;-51
2022/11/18 11:59:33;;;;;;;4.20;3.90;;;4.90;99.90;;;;;;4968419;28;20469;-51
2022/11/18 12:02:24;;;;;;;4.40;4.00;;;5.10;99.90;;;;;;4964527;28;20532;-54
2022/11/18 12:04:53;;;;;;;4.50;4.20;;;4.30;99.90;;;;;;4969934;28;20847;-51
2022/11/18 12:07:22;;;;;;;4.93;4.53;;;5.30;99.90;;;;;;4969762;28;20489;-51
2022/11/18 12:10:05;;;;;;;5.20;4.80;;;5.30;99.90;;;;;;4973589;28;20470;-51
2022/11/18 12:12:37;;;;;;;5.00;4.60;;;6.30;99.90;;;;;;4960593;28;20541;-52
2022/11/18 12:15:19;;;;;;;5.00;4.60;;;5.60;99.90;;;;;;4971923;28;20466;-51
2022/11/18 12:17:54;;;;;;;4.30;4.00;;;3.80;99.90;;;;;;4969944;28;20512;-51
2022/11/18 12:20:38;;;;;;;4.33;4.03;;;2.30;99.90;;;;;;4970524;28;21138;-51
2022/11/18 12:23:19;;;;;;;4.80;4.50;;;1.90;97.50;;;;;;4969040;28;20609;-50
2022/11/18 12:26:05;;;;;;;4.30;4.07;;;1.60;87.70;;;;;;4968167;28;20464;-51
2022/11/18 12:28:35;;;;;;;4.27;3.97;;;1.20;84.80;;;;;;4971704;28;20469;-52
2022/11/18 12:31:33;;;;;;;5.27;4.80;;;1.20;62.20;;;;;;4970730;28;20473;-51
2022/11/18 12:34:04;;;;;;;4.60;4.30;;;1.10;55.40;;;;;;4969657;28;20577;-51
2022/11/18 12:36:32;;;;;;;4.43;4.10;;;0.90;50.70;;;;;;4966203;28;20540;-51
2022/11/18 12:39:19;;;;;;;5.30;4.90;;;0.70;48.70;;;;;;4968049;28;20465;-51
2022/11/18 12:44:40;;;;;;;4.47;4.20;;;0.50;28.50;;;;;;4973267;28;20453;-51
2022/11/18 12:47:08;;;;;;;5.00;4.60;;;0.40;31.30;;;;;;4971787;28;20489;-51
2022/11/18 12:50:11;;;;;;;4.90;4.50;;;0.40;20.90;;;;;;4969579;28;20959;-51
2022/11/18 12:52:51;;;;;;;4.63;4.23;;;0.20;33.90;;;;;;4961564;28;20961;-51
2022/11/18 12:55:22;;;;;;;5.40;4.87;;;0.20;81.00;;;;;;4967836;28;20501;-51
2022/11/18 12:57:51;;;;;;;5.80;5.30;;;0.20;20.40;;;;;;4967063;28;20489;-51
2022/11/18 13:00:50;;;;;;;6.63;4.53;;;0.10;79.10;;;;;;4969502;28;20488;-51
2022/11/18 13:03:23;;;;;;;5.63;5.17;;;0.10;99.90;;;;;;4967045;28;20958;-51
2022/11/18 13:05:50;;;;;;;7.90;5.57;;;0.10;99.90;;;;;;4967764;28;20582;-51
2022/11/18 13:08:18;;;;;;;4.87;4.57;;;0.10;99.90;;;;;;4998375;23;20508;-51
2022/11/18 13:10:48;;;;;;;7.50;6.23;;;0.20;99.90;;;;;;4983306;28;20457;-52
2022/11/18 13:13:25;;;;;;;7.30;6.37;;;0.80;21.20;;;;;;4990765;28;21013;-52
2022/11/18 13:18:48;;;;;;;8.67;7.80;;;3.70;99.90;;;;;;4973551;28;20468;-52